Time;durP1;ratioP1;P1;durP2;ratioP2;P2;SDS_P1;SDS_P2;PMS_P1;PMS_P2;Temp;Humidity;BMP_temperature;BMP_pressure;BME280_temperature;BME280_humidity;BME280_pressure;Samples;Min_cycle;Max_cycle;Signal;HPM_P1;HPM_P2
2021/08/23 00:01:51;;;;;;;1034.47;932.25;;;;;;;;;;5043911;28;20030;-78
2021/08/23 00:04:17;;;;;;;1026.85;925.08;;;;;;;;;;5018660;28;20028;-78
2021/08/23 00:06:43;;;;;;;1027.20;925.55;;;;;;;;;;5045836;28;20084;-79
2021/08/23 00:09:09;;;;;;;1025.82;924.17;;;;;;;;;;5032265;28;20052;-78
2021/08/23 00:11:35;;;;;;;1027.88;926.00;;;;;;;;;;5043600;28;20028;-78
2021/08/23 00:14:01;;;;;;;1022.90;921.50;;;;;;;;;;5043077;28;20025;-78
2021/08/23 00:16:27;;;;;;;1019.95;918.42;;;;;;;;;;5044742;28;20055;-80
2021/08/23 00:18:53;;;;;;;1021.25;919.42;;;;;;;;;;5029603;28;20029;-78
2021/08/23 00:21:24;;;;;;;1028.18;926.03;;;;;;;;;;5038988;28;20029;-78
2021/08/23 00:23:53;;;;;;;1016.45;915.20;;;;;;;;;;5032946;28;20575;-79
2021/08/23 00:26:19;;;;;;;1030.25;928.25;;;;;;;;;;5030004;28;20113;-78
2021/08/23 00:28:45;;;;;;;1022.70;920.90;;;;;;;;;;5028647;28;20022;-78
2021/08/23 00:31:11;;;;;;;1022.95;921.60;;;;;;;;;;5042752;28;20048;-80
2021/08/23 00:33:37;;;;;;;1020.03;918.40;;;;;;;;;;5041268;28;20087;-79
2021/08/23 00:36:03;;;;;;;1024.10;922.25;;;;;;;;;;5059261;28;20045;-76
2021/08/23 00:38:29;;;;;;;1027.15;925.33;;;;;;;;;;5039953;28;20021;-79
2021/08/23 00:40:55;;;;;;;1032.15;930.17;;;;;;;;;;5049175;28;20025;-78
2021/08/23 00:43:21;;;;;;;1017.20;916.67;;;;;;;;;;5014365;28;20099;-78
2021/08/23 00:45:47;;;;;;;1014.58;914.40;;;;;;;;;;5047249;28;20120;-77
2021/08/23 00:48:13;;;;;;;1014.22;913.45;;;;;;;;;;5047212;28;20059;-78
2021/08/23 00:50:39;;;;;;;1018.47;917.67;;;;;;;;;;5047346;28;20028;-77
2021/08/23 00:53:05;;;;;;;1000.53;901.53;;;;;;;;;;5028233;28;20079;-78
2021/08/23 00:55:34;;;;;;;1012.70;912.40;;;;;;;;;;5032027;28;20124;-78
2021/08/23 00:58:00;;;;;;;1017.67;917.20;;;;;;;;;;5030673;28;20111;-77
2021/08/23 01:00:26;;;;;;;1009.05;909.20;;;;;;;;;;5049935;28;20024;-79
2021/08/23 01:03:01;;;;;;;1031.55;929.47;;;;;;;;;;5045175;28;20083;-79
2021/08/23 01:05:28;;;;;;;1025.55;923.88;;;;;;;;;;5043837;28;20025;-77
2021/08/23 01:08:06;;;;;;;1012.00;912.05;;;;;;;;;;5046643;28;20029;-78
2021/08/23 01:10:37;;;;;;;1017.63;916.88;;;;;;;;;;5030758;28;20029;-78
2021/08/23 01:13:06;;;;;;;1750.85;947.55;;;;;;;;;;5044005;28;20032;-78
2021/08/23 01:15:33;;;;;;;1019.92;918.58;;;;;;;;;;5045551;28;20124;-78
2021/08/23 01:17:59;;;;;;;953.95;858.92;;;;;;;;;;5031800;28;20025;-78
2021/08/23 01:20:26;;;;;;;957.65;862.15;;;;;;;;;;5033376;28;20029;-77
2021/08/23 01:22:53;;;;;;;970.25;873.65;;;;;;;;;;5048249;28;20044;-77
2021/08/23 01:25:29;;;;;;;966.75;870.45;;;;;;;;;;5047283;28;20473;-78
2021/08/23 01:28:10;;;;;;;1006.33;906.00;;;;;;;;;;5045730;28;20543;-78
2021/08/23 01:30:55;;;;;;;1011.60;910.83;;;;;;;;;;5058495;28;20403;-78
2021/08/23 01:33:21;;;;;;;1002.22;901.97;;;;;;;;;;5046480;28;20021;-78
2021/08/23 01:35:49;;;;;;;978.33;879.83;;;;;;;;;;5048691;28;20041;-79
2021/08/23 01:38:15;;;;;;;1004.25;904.10;;;;;;;;;;5038526;28;20081;-77
2021/08/23 01:40:41;;;;;;;1009.53;909.25;;;;;;;;;;5012327;28;20037;-78
2021/08/23 01:43:07;;;;;;;1007.88;907.70;;;;;;;;;;5025192;28;20035;-77
2021/08/23 01:45:33;;;;;;;1007.80;907.30;;;;;;;;;;5047978;28;20028;-78
2021/08/23 01:47:59;;;;;;;1002.92;903.25;;;;;;;;;;5039354;28;20486;-78
2021/08/23 01:50:25;;;;;;;999.67;900.00;;;;;;;;;;5031797;28;20478;-78
2021/08/23 01:52:51;;;;;;;997.20;897.20;;;;;;;;;;5032528;28;20036;-78
2021/08/23 01:55:17;;;;;;;1004.78;904.22;;;;;;;;;;5047502;28;20650;-78
2021/08/23 01:57:43;;;;;;;994.15;894.42;;;;;;;;;;5043024;28;20729;-78
2021/08/23 02:00:09;;;;;;;998.75;898.47;;;;;;;;;;5048375;28;20491;-78
2021/08/23 02:02:35;;;;;;;1006.95;906.53;;;;;;;;;;5039890;28;20116;-78
2021/08/23 02:05:01;;;;;;;998.90;898.58;;;;;;;;;;5049300;28;20029;-77
2021/08/23 02:07:27;;;;;;;1001.97;900.92;;;;;;;;;;5043576;28;20024;-77
2021/08/23 02:09:56;;;;;;;996.58;896.38;;;;;;;;;;5030234;28;20036;-78
2021/08/23 02:12:22;;;;;;;1003.95;903.17;;;;;;;;;;5044119;28;20048;-78
2021/08/23 02:14:48;;;;;;;991.42;892.08;;;;;;;;;;5029831;28;20468;-78
2021/08/23 02:17:14;;;;;;;995.83;896.03;;;;;;;;;;5032356;28;20594;-79
2021/08/23 02:19:40;;;;;;;989.15;889.65;;;;;;;;;;5046086;28;20608;-77
2021/08/23 02:22:06;;;;;;;989.95;890.58;;;;;;;;;;5045206;28;20388;-77
2021/08/23 02:24:33;;;;;;;918.08;796.00;;;;;;;;;;5045043;28;20626;-78
2021/08/23 02:26:59;;;;;;;998.13;897.88;;;;;;;;;;5046407;28;20098;-78
2021/08/23 02:29:25;;;;;;;918.70;824.90;;;;;;;;;;5045512;28;20053;-77
2021/08/23 02:31:51;;;;;;;990.85;890.67;;;;;;;;;;5046827;28;20083;-78
2021/08/23 02:34:17;;;;;;;992.70;892.60;;;;;;;;;;5028976;28;20036;-77
2021/08/23 02:36:43;;;;;;;987.05;887.08;;;;;;;;;;5046629;28;20031;-78
2021/08/23 02:39:09;;;;;;;992.22;891.95;;;;;;;;;;5042927;28;20029;-78
2021/08/23 02:41:35;;;;;;;985.83;886.10;;;;;;;;;;5046416;28;20032;-79
2021/08/23 02:44:00;;;;;;;983.22;884.05;;;;;;;;;;5046135;28;20031;-78
2021/08/23 02:46:26;;;;;;;986.03;886.42;;;;;;;;;;5045936;28;20033;-77
2021/08/23 02:48:52;;;;;;;985.72;886.25;;;;;;;;;;5044480;28;20451;-79
2021/08/23 02:51:18;;;;;;;997.35;896.55;;;;;;;;;;5046051;28;20111;-77
2021/08/23 02:53:44;;;;;;;985.67;886.10;;;;;;;;;;5043198;28;20027;-78
2021/08/23 02:56:10;;;;;;;979.10;879.67;;;;;;;;;;5046748;28;20044;-77
2021/08/23 02:58:36;;;;;;;990.78;890.88;;;;;;;;;;5045387;28;20087;-78
2021/08/23 03:01:02;;;;;;;987.05;887.50;;;;;;;;;;5040324;28;20549;-79
2021/08/23 03:03:28;;;;;;;994.83;894.67;;;;;;;;;;5024962;28;20060;-77
2021/08/23 03:05:54;;;;;;;1000.88;900.08;;;;;;;;;;5046031;28;20072;-78
2021/08/23 03:08:20;;;;;;;996.65;896.33;;;;;;;;;;5041966;28;20496;-78
2021/08/23 03:10:46;;;;;;;991.90;892.17;;;;;;;;;;5031006;28;20355;-79
2021/08/23 03:13:12;;;;;;;988.60;889.42;;;;;;;;;;5030657;28;20125;-79
2021/08/23 03:15:38;;;;;;;992.13;892.33;;;;;;;;;;5044301;28;20037;-78
2021/08/23 03:18:04;;;;;;;989.95;890.10;;;;;;;;;;5036148;28;20024;-78
2021/08/23 03:20:30;;;;;;;991.13;891.30;;;;;;;;;;5046326;28;20558;-79
2021/08/23 03:22:56;;;;;;;985.15;885.42;;;;;;;;;;5048488;28;20427;-78
2021/08/23 03:25:22;;;;;;;947.75;842.80;;;;;;;;;;5050962;28;20700;-79
2021/08/23 03:27:48;;;;;;;984.05;884.05;;;;;;;;;;5049912;28;20399;-79
2021/08/23 03:30:14;;;;;;;977.55;878.30;;;;;;;;;;5038280;28;20025;-78
2021/08/23 03:32:40;;;;;;;966.13;867.55;;;;;;;;;;5022378;28;20040;-76
2021/08/23 03:35:07;;;;;;;974.88;875.67;;;;;;;;;;5049737;28;20036;-77
2021/08/23 03:37:33;;;;;;;978.30;878.78;;;;;;;;;;5050364;28;20032;-75
2021/08/23 03:39:59;;;;;;;969.75;869.85;;;;;;;;;;5048668;28;20044;-76
2021/08/23 03:42:25;;;;;;;969.47;870.53;;;;;;;;;;5050207;28;20020;-76
2021/08/23 03:44:51;;;;;;;971.75;872.88;;;;;;;;;;5048510;28;20116;-76
2021/08/23 03:47:17;;;;;;;976.35;877.10;;;;;;;;;;5049844;28;20087;-75
2021/08/23 03:49:43;;;;;;;980.45;880.70;;;;;;;;;;5032667;28;20674;-76
2021/08/23 03:52:09;;;;;;;973.00;873.90;;;;;;;;;;5040000;28;20032;-75
2021/08/23 03:54:35;;;;;;;972.60;873.47;;;;;;;;;;5048613;28;20048;-76
2021/08/23 03:57:01;;;;;;;973.65;874.45;;;;;;;;;;5048527;28;20020;-76
2021/08/23 03:59:27;;;;;;;967.60;868.92;;;;;;;;;;5036761;28;20293;-75
2021/08/23 04:01:53;;;;;;;973.17;874.17;;;;;;;;;;5030558;28;20175;-76
2021/08/23 04:04:19;;;;;;;980.42;880.70;;;;;;;;;;5031993;28;20021;-76
2021/08/23 04:06:46;;;;;;;973.28;874.53;;;;;;;;;;5023789;28;20017;-75
2021/08/23 04:09:13;;;;;;;970.25;871.08;;;;;;;;;;5024305;28;20386;-75
2021/08/23 04:11:39;;;;;;;969.40;870.22;;;;;;;;;;5036306;28;20358;-77
2021/08/23 04:14:05;;;;;;;971.20;872.78;;;;;;;;;;5055072;28;20018;-75
2021/08/23 04:16:31;;;;;;;975.92;877.20;;;;;;;;;;5041221;28;20063;-77
2021/08/23 04:18:57;;;;;;;972.58;873.33;;;;;;;;;;5030311;28;20020;-76
2021/08/23 04:21:23;;;;;;;972.08;873.20;;;;;;;;;;5050362;28;20036;-76
2021/08/23 04:23:49;;;;;;;986.00;886.28;;;;;;;;;;5058201;28;20033;-77
2021/08/23 04:26:15;;;;;;;978.70;879.30;;;;;;;;;;5034515;28;20021;-77
2021/08/23 04:28:41;;;;;;;977.35;878.33;;;;;;;;;;5046877;28;20024;-78
2021/08/23 04:31:07;;;;;;;980.45;880.45;;;;;;;;;;5030062;28;20471;-77
2021/08/23 04:33:33;;;;;;;975.53;876.60;;;;;;;;;;5046869;28;20110;-78
2021/08/23 04:35:59;;;;;;;976.70;877.55;;;;;;;;;;5047992;28;20128;-77
2021/08/23 04:38:25;;;;;;;977.05;877.65;;;;;;;;;;5031958;28;20072;-78
2021/08/23 04:40:51;;;;;;;966.83;868.30;;;;;;;;;;5029626;28;20040;-78
2021/08/23 04:43:17;;;;;;;974.80;875.65;;;;;;;;;;5041061;28;20025;-77
2021/08/23 04:45:43;;;;;;;973.42;874.45;;;;;;;;;;5048614;28;20021;-77
2021/08/23 04:48:09;;;;;;;985.08;885.35;;;;;;;;;;5052382;28;20159;-78
2021/08/23 04:50:35;;;;;;;983.25;883.88;;;;;;;;;;5048991;28;20032;-78
2021/08/23 04:53:01;;;;;;;994.92;894.72;;;;;;;;;;5058504;28;20029;-78
2021/08/23 04:55:27;;;;;;;982.30;882.92;;;;;;;;;;5048944;28;20103;-77
2021/08/23 04:57:53;;;;;;;983.45;883.90;;;;;;;;;;5047563;28;20467;-78
2021/08/23 05:00:20;;;;;;;987.75;887.80;;;;;;;;;;5046843;28;20029;-78
2021/08/23 05:02:46;;;;;;;978.08;878.92;;;;;;;;;;5046498;28;20037;-77
2021/08/23 05:05:12;;;;;;;992.67;892.83;;;;;;;;;;5049424;28;20555;-78
2021/08/23 05:07:38;;;;;;;976.10;877.25;;;;;;;;;;5046931;28;20502;-78
2021/08/23 05:10:04;;;;;;;974.75;875.88;;;;;;;;;;5045925;28;20025;-78
2021/08/23 05:12:30;;;;;;;981.78;882.70;;;;;;;;;;5046637;28;20048;-77
2021/08/23 05:14:56;;;;;;;983.38;884.25;;;;;;;;;;5048799;28;20435;-79
2021/08/23 05:17:22;;;;;;;993.78;893.55;;;;;;;;;;5047209;28;20063;-78
2021/08/23 05:19:48;;;;;;;1030.78;928.90;;;;;;;;;;5043670;28;20036;-78
2021/08/23 05:22:14;;;;;;;1027.25;925.00;;;;;;;;;;5044258;28;20025;-78
2021/08/23 05:24:40;;;;;;;1029.60;927.28;;;;;;;;;;5037090;28;20060;-79
2021/08/23 05:27:06;;;;;;;1033.38;931.17;;;;;;;;;;5036753;28;20470;-78
2021/08/23 05:29:32;;;;;;;1036.80;934.63;;;;;;;;;;5045898;28;20124;-78
2021/08/23 05:31:58;;;;;;;1033.45;931.15;;;;;;;;;;5047643;28;20017;-78
2021/08/23 05:34:23;;;;;;;1027.65;925.72;;;;;;;;;;5046921;28;20067;-78
2021/08/23 05:36:49;;;;;;;1023.80;922.20;;;;;;;;;;5045073;28;20037;-76
2021/08/23 05:39:15;;;;;;;1027.05;925.15;;;;;;;;;;5046849;28;20029;-77
2021/08/23 05:41:41;;;;;;;1023.75;922.40;;;;;;;;;;5031855;28;20025;-78
2021/08/23 05:44:07;;;;;;;1036.15;933.63;;;;;;;;;;5029178;28;20040;-78
2021/08/23 05:46:33;;;;;;;1031.47;929.22;;;;;;;;;;5039014;28;20033;-78
2021/08/23 05:48:59;;;;;;;1033.43;931.42;;;;;;;;;;5042260;28;20128;-78
2021/08/23 05:51:25;;;;;;;1026.80;924.63;;;;;;;;;;5046838;28;20021;-78
2021/08/23 05:53:51;;;;;;;1020.92;919.50;;;;;;;;;;5046403;28;20083;-79
2021/08/23 05:56:17;;;;;;;1032.55;930.38;;;;;;;;;;5047132;28;20040;-78
2021/08/23 05:58:43;;;;;;;1036.25;934.13;;;;;;;;;;5038668;28;20300;-78
2021/08/23 06:01:09;;;;;;;1036.03;933.63;;;;;;;;;;5039489;28;20028;-78
2021/08/23 06:03:35;;;;;;;1030.70;928.90;;;;;;;;;;5046397;28;20036;-78
2021/08/23 06:06:07;;;;;;;1037.72;934.90;;;;;;;;;;5028204;28;20078;-78
2021/08/23 06:08:34;;;;;;;1037.07;934.75;;;;;;;;;;5033195;28;20032;-78
2021/08/23 06:11:00;;;;;;;1039.38;937.03;;;;;;;;;;5034922;28;20337;-78
2021/08/23 06:13:26;;;;;;;1036.07;933.97;;;;;;;;;;5044094;28;20432;-78
2021/08/23 06:15:54;;;;;;;1034.93;932.97;;;;;;;;;;5046378;28;20037;-78
2021/08/23 06:18:20;;;;;;;1042.07;939.47;;;;;;;;;;5039280;28;20025;-79
2021/08/23 06:20:46;;;;;;;1039.82;937.65;;;;;;;;;;5030769;28;20450;-78
2021/08/23 06:23:12;;;;;;;1039.20;936.88;;;;;;;;;;5043270;28;20445;-77
2021/08/23 06:25:38;;;;;;;1042.72;940.17;;;;;;;;;;5042620;28;20124;-78
2021/08/23 06:28:04;;;;;;;1036.68;934.42;;;;;;;;;;5040458;28;20183;-78
2021/08/23 06:30:30;;;;;;;1042.75;940.53;;;;;;;;;;5028140;28;20024;-77
2021/08/23 06:32:56;;;;;;;1041.28;938.47;;;;;;;;;;5031052;28;20047;-77
2021/08/23 06:35:30;;;;;;;1033.63;932.05;;;;;;;;;;5047104;28;20033;-79
2021/08/23 06:37:56;;;;;;;1035.22;933.22;;;;;;;;;;5029502;28;20409;-78
2021/08/23 06:40:22;;;;;;;1052.68;949.22;;;;;;;;;;5040467;28;20112;-78
2021/08/23 06:42:48;;;;;;;1047.90;945.17;;;;;;;;;;5040018;28;20468;-78
2021/08/23 06:45:14;;;;;;;1033.00;931.55;;;;;;;;;;5042962;28;20112;-77
2021/08/23 06:47:40;;;;;;;1041.95;939.70;;;;;;;;;;5045846;28;20033;-76
2021/08/23 06:50:06;;;;;;;1038.13;935.88;;;;;;;;;;5040234;28;20051;-77
2021/08/23 06:52:32;;;;;;;1043.90;941.90;;;;;;;;;;5033219;28;20037;-77
2021/08/23 06:54:58;;;;;;;1031.78;930.15;;;;;;;;;;5038062;28;20519;-77
2021/08/23 06:57:25;;;;;;;1047.75;945.35;;;;;;;;;;5036910;28;20059;-77
2021/08/23 06:59:51;;;;;;;1048.43;946.00;;;;;;;;;;5039925;28;20033;-77
2021/08/23 07:02:17;;;;;;;1048.85;946.47;;;;;;;;;;5044520;28;20021;-78
2021/08/23 07:04:48;;;;;;;1043.55;941.38;;;;;;;;;;5046115;28;20366;-77
2021/08/23 07:07:14;;;;;;;1044.22;942.13;;;;;;;;;;5043114;28;20017;-77
2021/08/23 07:09:40;;;;;;;1042.85;940.83;;;;;;;;;;5044794;28;20378;-78
2021/08/23 07:12:06;;;;;;;1046.45;944.08;;;;;;;;;;5043345;28;20379;-78
2021/08/23 07:14:32;;;;;;;1052.80;950.08;;;;;;;;;;5032817;28;20025;-77
2021/08/23 07:16:58;;;;;;;1049.53;946.63;;;;;;;;;;5022805;28;20032;-79
2021/08/23 07:19:24;;;;;;;1046.80;944.60;;;;;;;;;;5036302;28;20032;-78
2021/08/23 07:21:50;;;;;;;1054.75;951.88;;;;;;;;;;5036062;28;20021;-78
2021/08/23 07:24:16;;;;;;;1044.80;942.97;;;;;;;;;;5041742;28;20400;-78
2021/08/23 07:26:42;;;;;;;918.35;825.28;;;;;;;;;;5045018;28;20029;-79
2021/08/23 07:29:12;;;;;;;1072.53;968.38;;;;;;;;;;5045517;28;20415;-80
2021/08/23 07:31:38;;;;;;;1081.95;976.70;;;;;;;;;;5026245;28;20026;-80
2021/08/23 07:34:04;;;;;;;1078.57;973.28;;;;;;;;;;5033169;28;20052;-78
2021/08/23 07:36:30;;;;;;;1081.20;976.03;;;;;;;;;;5045312;28;20029;-80
2021/08/23 07:39:05;;;;;;;1084.90;978.75;;;;;;;;;;5034171;28;20068;-78
2021/08/23 07:41:31;;;;;;;1077.63;973.13;;;;;;;;;;5044045;28;20035;-78
2021/08/23 07:43:57;;;;;;;1090.10;984.22;;;;;;;;;;5041087;28;20036;-77
2021/08/23 07:46:23;;;;;;;1080.65;975.80;;;;;;;;;;5045163;28;20407;-78
2021/08/23 07:48:49;;;;;;;1090.40;984.42;;;;;;;;;;5038713;28;20045;-77
2021/08/23 07:51:15;;;;;;;1090.82;984.92;;;;;;;;;;5038515;28;20623;-78
2021/08/23 07:53:41;;;;;;;1082.85;977.58;;;;;;;;;;5037180;28;20037;-77
2021/08/23 07:56:07;;;;;;;1087.13;982.10;;;;;;;;;;5039394;28;20495;-78
2021/08/23 07:58:33;;;;;;;1077.63;973.72;;;;;;;;;;5046267;28;20029;-78
2021/08/23 08:00:59;;;;;;;1076.85;972.50;;;;;;;;;;5052603;28;20039;-79
2021/08/23 08:03:26;;;;;;;1076.20;972.55;;;;;;;;;;5045388;28;20029;-78
2021/08/23 08:05:52;;;;;;;1078.47;974.30;;;;;;;;;;5042087;28;20113;-78
2021/08/23 08:08:18;;;;;;;1079.70;975.55;;;;;;;;;;5047413;28;20039;-77
2021/08/23 08:10:44;;;;;;;1084.65;980.50;;;;;;;;;;5047978;28;20053;-77
2021/08/23 08:13:10;;;;;;;1091.22;986.65;;;;;;;;;;5049546;28;20107;-77
2021/08/23 08:15:36;;;;;;;1090.15;985.70;;;;;;;;;;5049427;28;20047;-77
2021/08/23 08:18:02;;;;;;;1100.70;995.20;;;;;;;;;;5050982;28;20051;-76
2021/08/23 08:20:28;;;;;;;1109.13;998.53;;;;;;;;;;5063969;28;20056;-79
2021/08/23 08:22:54;;;;;;;1105.88;998.20;;;;;;;;;;5049295;28;20506;-80
2021/08/23 08:25:20;;;;;;;1107.57;998.97;;;;;;;;;;5047558;28;20115;-78
2021/08/23 08:27:47;;;;;;;1107.25;998.78;;;;;;;;;;5046888;28;20032;-79
2021/08/23 08:30:15;;;;;;;1105.05;997.63;;;;;;;;;;5048611;28;20563;-78
2021/08/23 08:32:41;;;;;;;1102.70;997.33;;;;;;;;;;5029920;28;20484;-79
2021/08/23 08:35:07;;;;;;;1096.25;991.53;;;;;;;;;;5013034;28;20029;-78
2021/08/23 08:37:34;;;;;;;1107.15;998.55;;;;;;;;;;5027081;28;20417;-78
2021/08/23 08:40:00;;;;;;;1112.88;999.90;;;;;;;;;;5048381;28;20029;-78
2021/08/23 08:42:26;;;;;;;1107.50;998.85;;;;;;;;;;5042692;28;20017;-78
2021/08/23 08:44:52;;;;;;;1114.35;999.90;;;;;;;;;;5047864;28;20039;-78
2021/08/23 08:47:19;;;;;;;1120.35;999.90;;;;;;;;;;5045682;28;20095;-77
2021/08/23 08:49:46;;;;;;;1118.95;999.90;;;;;;;;;;5046795;28;20033;-79
2021/08/23 08:52:14;;;;;;;1121.95;999.90;;;;;;;;;;5035335;28;20021;-78
2021/08/23 08:54:40;;;;;;;1122.97;999.90;;;;;;;;;;5036106;28;20044;-83
2021/08/23 08:57:06;;;;;;;1136.75;999.90;;;;;;;;;;5034550;28;20403;-82
2021/08/23 08:59:35;;;;;;;1145.18;999.90;;;;;;;;;;5042898;28;20502;-82
2021/08/23 09:02:02;;;;;;;1159.78;999.90;;;;;;;;;;5046218;28;20025;-84
2021/08/23 09:04:29;;;;;;;1159.07;999.90;;;;;;;;;;5047146;28;20119;-83
2021/08/23 09:06:57;;;;;;;1170.40;999.90;;;;;;;;;;5044870;28;20035;-82
2021/08/23 09:09:23;;;;;;;1169.97;999.90;;;;;;;;;;5046955;28;20359;-84
2021/08/23 09:11:57;;;;;;;1178.15;999.90;;;;;;;;;;5045877;28;20110;-81
2021/08/23 09:14:23;;;;;;;1175.10;999.90;;;;;;;;;;5044567;28;20040;-81
2021/08/23 09:16:49;;;;;;;1192.28;999.90;;;;;;;;;;5045807;28;20020;-84
2021/08/23 09:19:36;;;;;;;1191.93;999.90;;;;;;;;;;5033797;28;20139;-83
2021/08/23 09:22:21;;;;;;;1200.78;999.90;;;;;;;;;;5033042;28;20067;-85
2021/08/23 09:24:48;;;;;;;1204.68;999.90;;;;;;;;;;5052906;28;20623;-82
2021/08/23 09:27:18;;;;;;;1211.32;999.90;;;;;;;;;;5051113;28;20541;-82
2021/08/23 09:30:00;;;;;;;1195.50;999.90;;;;;;;;;;5041199;28;20038;-81
2021/08/23 09:32:27;;;;;;;1191.70;999.90;;;;;;;;;;5042636;28;20110;-82
2021/08/23 09:35:02;;;;;;;1191.95;999.90;;;;;;;;;;5038141;28;20033;-83
2021/08/23 09:37:29;;;;;;;1129.30;999.90;;;;;;;;;;5042349;28;20028;-82
2021/08/23 09:40:07;;;;;;;1152.30;999.90;;;;;;;;;;5037814;28;20029;-86
2021/08/23 09:42:33;;;;;;;1186.32;999.90;;;;;;;;;;5030543;28;20037;-82
2021/08/23 09:44:59;;;;;;;1184.38;999.90;;;;;;;;;;5044602;28;20021;-83
2021/08/23 09:47:29;;;;;;;1175.40;999.90;;;;;;;;;;5038623;28;20399;-81
2021/08/23 09:49:56;;;;;;;1174.25;999.90;;;;;;;;;;5025611;28;20367;-81
2021/08/23 09:52:30;;;;;;;1176.65;999.90;;;;;;;;;;5041024;28;20180;-81
2021/08/23 09:55:05;;;;;;;1177.15;999.90;;;;;;;;;;5032188;28;20032;-80
2021/08/23 09:57:34;;;;;;;1173.35;999.90;;;;;;;;;;5026646;28;20096;-81
2021/08/23 10:00:00;;;;;;;1172.20;999.90;;;;;;;;;;5037624;28;20519;-80
2021/08/23 10:02:27;;;;;;;1168.93;999.90;;;;;;;;;;5039951;28;20020;-82
2021/08/23 10:04:57;;;;;;;1175.60;999.90;;;;;;;;;;5034440;28;20056;-83
2021/08/23 10:07:26;;;;;;;;;;;;;;;;;;5034817;28;20415;-82
2021/08/23 10:09:55;;;;;;;1176.57;999.90;;;;;;;;;;5037416;28;20554;-83
2021/08/23 10:12:24;;;;;;;1196.35;999.90;;;;;;;;;;5047402;28;20043;-83
2021/08/23 10:14:50;;;;;;;1205.60;999.90;;;;;;;;;;5042414;28;20059;-83
2021/08/23 10:17:16;;;;;;;1212.40;999.90;;;;;;;;;;5037308;28;20026;-82
2021/08/23 10:19:45;;;;;;;1212.03;999.90;;;;;;;;;;5042892;28;20045;-81
2021/08/23 10:22:15;;;;;;;1224.60;999.90;;;;;;;;;;5034228;28;20020;-85
2021/08/23 10:24:42;;;;;;;1241.03;999.90;;;;;;;;;;5042455;28;20514;-72
2021/08/23 10:27:08;;;;;;;1243.32;999.90;;;;;;;;;;5041861;28;20471;-85
2021/08/23 10:29:41;;;;;;;1253.63;999.90;;;;;;;;;;5046712;28;20041;-82
2021/08/23 10:32:08;;;;;;;1245.18;999.90;;;;;;;;;;5035575;28;20048;-84
2021/08/23 10:34:34;;;;;;;1285.82;999.90;;;;;;;;;;5039044;28;20538;-83
2021/08/23 10:37:00;;;;;;;1281.70;999.90;;;;;;;;;;5037227;28;20025;-82
2021/08/23 10:39:28;;;;;;;1278.55;999.90;;;;;;;;;;5040488;28;20017;-81
2021/08/23 10:41:55;;;;;;;1283.18;999.90;;;;;;;;;;5042801;28;20035;-82
2021/08/23 10:44:32;;;;;;;1272.80;999.90;;;;;;;;;;5024141;28;20056;-83
2021/08/23 10:47:04;;;;;;;1272.32;999.90;;;;;;;;;;5043030;28;20115;-82
2021/08/23 10:49:49;;;;;;;1277.10;999.90;;;;;;;;;;5030081;28;20042;-83
2021/08/23 10:52:16;;;;;;;1274.68;999.90;;;;;;;;;;5045027;28;20041;-85
2021/08/23 10:54:43;;;;;;;1267.07;999.90;;;;;;;;;;5045038;28;20036;-80
2021/08/23 10:57:11;;;;;;;1268.45;999.90;;;;;;;;;;5024164;28;20036;-73
2021/08/23 10:59:38;;;;;;;1259.18;999.90;;;;;;;;;;5036249;28;20344;-72
2021/08/23 11:02:04;;;;;;;1264.97;999.90;;;;;;;;;;5046726;28;20025;-72
2021/08/23 11:04:31;;;;;;;1263.25;999.90;;;;;;;;;;5047540;28;20509;-72
2021/08/23 11:06:58;;;;;;;1264.32;999.90;;;;;;;;;;5046662;28;20478;-72
2021/08/23 11:09:33;;;;;;;1270.85;999.90;;;;;;;;;;5045350;28;20083;-73
2021/08/23 11:12:06;;;;;;;1264.88;999.90;;;;;;;;;;5047046;28;20013;-73
2021/08/23 11:14:41;;;;;;;1265.85;999.90;;;;;;;;;;5047862;28;20057;-73
2021/08/23 11:17:07;;;;;;;1256.93;999.90;;;;;;;;;;5045214;28;20449;-72
2021/08/23 11:19:37;;;;;;;1250.85;999.90;;;;;;;;;;5039302;28;20117;-73
2021/08/23 11:22:03;;;;;;;1243.53;999.90;;;;;;;;;;5045557;28;20105;-73
2021/08/23 11:24:30;;;;;;;1244.28;999.90;;;;;;;;;;5035870;28;20021;-80
2021/08/23 11:27:00;;;;;;;1238.45;999.90;;;;;;;;;;5030524;28;20107;-81
2021/08/23 11:29:29;;;;;;;1242.10;999.90;;;;;;;;;;5029738;28;20075;-82
2021/08/23 11:31:58;;;;;;;1237.63;999.90;;;;;;;;;;5045688;28;20060;-80
2021/08/23 11:34:25;;;;;;;1239.88;999.90;;;;;;;;;;5044808;28;20028;-80
2021/08/23 11:36:51;;;;;;;1238.18;999.90;;;;;;;;;;5039651;28;20026;-81
2021/08/23 11:39:17;;;;;;;1248.75;999.90;;;;;;;;;;5046659;28;20044;-83
2021/08/23 11:41:55;;;;;;;1258.85;999.90;;;;;;;;;;5036770;28;20026;-80
2021/08/23 11:44:21;;;;;;;1255.60;999.90;;;;;;;;;;5031899;28;20051;-82
2021/08/23 11:47:01;;;;;;;1262.88;999.90;;;;;;;;;;5043519;28;20079;-81
2021/08/23 11:49:28;;;;;;;1284.50;999.90;;;;;;;;;;5034366;28;20076;-80
2021/08/23 11:51:55;;;;;;;1298.65;999.90;;;;;;;;;;5050481;28;20033;-81
2021/08/23 11:54:21;;;;;;;1307.95;999.90;;;;;;;;;;5050771;28;20128;-80
2021/08/23 11:59:52;;;;;;;1314.50;999.90;;;;;;;;;;5047329;28;20059;-86
2021/08/23 12:02:25;;;;;;;1318.65;999.90;;;;;;;;;;5053506;28;20025;-82
2021/08/23 12:04:51;;;;;;;1319.70;999.90;;;;;;;;;;5050220;28;20033;-82
2021/08/23 12:07:21;;;;;;;1295.55;999.90;;;;;;;;;;5050002;28;20040;-83
2021/08/23 12:10:04;;;;;;;1069.72;984.83;;;;;;;;;;5049960;28;20033;-82
2021/08/23 12:12:32;;;;;;;1336.05;999.90;;;;;;;;;;5046141;28;20040;-81
2021/08/23 12:14:58;;;;;;;1335.00;999.90;;;;;;;;;;5033922;28;20029;-83
2021/08/23 12:17:32;;;;;;;1326.38;999.90;;;;;;;;;;5047472;28;20036;-83
2021/08/23 12:20:27;;;;;;;1346.93;999.90;;;;;;;;;;5044962;28;20044;-83
2021/08/23 12:23:01;;;;;;;1375.63;999.90;;;;;;;;;;5019644;28;20363;-83
2021/08/23 12:25:27;;;;;;;1373.85;999.90;;;;;;;;;;5050115;28;20516;-82
2021/08/23 12:27:53;;;;;;;1381.25;999.90;;;;;;;;;;5049057;28;20037;-81
2021/08/23 12:30:27;;;;;;;1367.22;999.90;;;;;;;;;;5043037;28;20150;-79
2021/08/23 12:32:53;;;;;;;1409.60;999.90;;;;;;;;;;5019078;28;20033;-79
2021/08/23 12:35:29;;;;;;;1356.15;999.90;;;;;;;;;;5012768;28;20030;-79
2021/08/23 12:37:55;;;;;;;979.20;891.40;;;;;;;;;;5026432;28;20021;-79
2021/08/23 12:40:21;;;;;;;1038.82;960.33;;;;;;;;;;5049614;28;20539;-79
2021/08/23 12:42:53;;;;;;;1231.28;999.90;;;;;;;;;;5050147;28;20082;-79
2021/08/23 12:45:19;;;;;;;441.45;393.17;;;;;;;;;;5048961;28;20029;-79
2021/08/23 12:47:45;;;;;;;453.30;404.70;;;;;;;;;;5049764;28;20047;-80
2021/08/23 12:50:11;;;;;;;400.63;343.98;;;;;;;;;;5049705;28;20130;-79
2021/08/23 12:52:37;;;;;;;419.10;372.40;;;;;;;;;;5032775;28;20025;-79
2021/08/23 12:55:03;;;;;;;980.05;905.15;;;;;;;;;;5031783;28;20040;-78
2021/08/23 12:57:29;;;;;;;1045.43;964.75;;;;;;;;;;5048960;28;20025;-78
2021/08/23 12:59:55;;;;;;;962.63;886.17;;;;;;;;;;5048533;28;20029;-78
2021/08/23 13:02:21;;;;;;;1327.00;999.90;;;;;;;;;;5044577;28;20336;-78
2021/08/23 13:04:47;;;;;;;1311.05;999.90;;;;;;;;;;5048712;28;20040;-79
2021/08/23 13:07:13;;;;;;;1291.90;999.90;;;;;;;;;;5048955;28;20055;-79
2021/08/23 13:09:39;;;;;;;1273.28;999.90;;;;;;;;;;5032249;28;20025;-79
2021/08/23 13:12:05;;;;;;;1258.90;999.90;;;;;;;;;;5032132;28;20035;-78
2021/08/23 13:14:32;;;;;;;1256.47;999.90;;;;;;;;;;5031809;28;20079;-79
2021/08/23 13:16:58;;;;;;;1250.47;999.90;;;;;;;;;;5030544;28;20478;-78
2021/08/23 13:19:24;;;;;;;1234.38;999.90;;;;;;;;;;5048585;28;20033;-80
2021/08/23 13:21:50;;;;;;;1239.60;999.90;;;;;;;;;;5063678;28;20032;-78
2021/08/23 13:24:16;;;;;;;1225.45;999.90;;;;;;;;;;5047971;28;20103;-78
2021/08/23 13:26:42;;;;;;;1235.18;999.90;;;;;;;;;;5040204;28;20033;-78
2021/08/23 13:29:55;;;;;;;1239.30;999.90;;;;;;;;;;5047720;28;20033;-84
2021/08/23 13:32:39;;;;;;;1255.47;999.90;;;;;;;;;;5021391;28;20125;-81
2021/08/23 13:35:06;;;;;;;1281.38;999.90;;;;;;;;;;5039683;28;20329;-84
2021/08/23 13:37:50;;;;;;;1320.75;999.90;;;;;;;;;;5045706;28;20078;-84
2021/08/23 13:40:19;;;;;;;1365.25;999.90;;;;;;;;;;5049248;28;20036;-85
2021/08/23 13:42:45;;;;;;;1390.18;999.90;;;;;;;;;;5042307;28;20440;-83
2021/08/23 13:45:28;;;;;;;;;;;;;;;;;;;;;
2021/08/23 13:47:54;;;;;;;1431.93;999.90;;;;;;;;;;5046686;28;20120;-84
2021/08/23 13:50:21;;;;;;;1467.38;999.90;;;;;;;;;;5046773;28;20116;-87
2021/08/23 13:52:47;;;;;;;1482.93;999.90;;;;;;;;;;5046942;28;20517;-83